Time;durP1;ratioP1;P1;durP2;ratioP2;P2;SDS_P1;SDS_P2;PMS_P1;PMS_P2;Temp;Humidity;BMP_temperature;BMP_pressure;BME280_temperature;BME280_humidity;BME280_pressure;Samples;Min_cycle;Max_cycle;Signal;HPM_P1;HPM_P2
2022/07/05 00:00:01;;;;;;;2.08;0.90;;;23.60;50.20;;;;;;5009960;28;20080;-63
2022/07/05 00:02:26;;;;;;;1.75;0.60;;;23.70;50.30;;;;;;5009563;28;20388;-62
2022/07/05 00:04:52;;;;;;;1.42;1.02;;;23.60;50.30;;;;;;5009548;28;20049;-62
2022/07/05 00:07:18;;;;;;;1.15;0.82;;;23.60;50.20;;;;;;5008302;28;20038;-62
2022/07/05 00:09:45;;;;;;;0.80;0.77;;;23.70;50.30;;;;;;5010776;28;20782;-62
2022/07/05 00:12:15;;;;;;;0.88;0.80;;;23.60;50.30;;;;;;5023779;28;20112;-62
2022/07/05 00:14:42;;;;;;;1.10;0.68;;;23.60;50.30;;;;;;5008386;28;20467;-62
2022/07/05 00:17:08;;;;;;;1.77;0.65;;;23.60;50.40;;;;;;5010309;28;20030;-62
2022/07/05 00:19:33;;;;;;;1.00;0.77;;;23.60;50.30;;;;;;5008476;28;20493;-62
2022/07/05 00:21:59;;;;;;;0.95;0.65;;;23.60;50.30;;;;;;5008684;28;20470;-63
2022/07/05 00:24:26;;;;;;;0.70;0.70;;;23.60;50.30;;;;;;5016032;28;20076;-62
2022/07/05 00:26:51;;;;;;;0.63;0.63;;;23.60;50.30;;;;;;5013697;28;20053;-62
2022/07/05 00:29:17;;;;;;;1.40;0.60;;;23.60;50.30;;;;;;5012906;28;20041;-62
2022/07/05 00:31:43;;;;;;;1.08;0.80;;;23.60;50.40;;;;;;5014170;28;20076;-62
2022/07/05 00:34:09;;;;;;;0.98;0.70;;;23.60;50.40;;;;;;5012985;28;20034;-62
2022/07/05 00:36:34;;;;;;;0.75;0.70;;;23.60;50.40;;;;;;5013566;28;20457;-62
2022/07/05 00:39:00;;;;;;;0.70;0.70;;;23.60;50.40;;;;;;5014659;28;20120;-62
2022/07/05 00:41:26;;;;;;;0.70;0.68;;;23.60;50.40;;;;;;5015252;28;20125;-63
2022/07/05 00:43:58;;;;;;;0.63;0.60;;;23.60;50.40;;;;;;5009431;28;20453;-63
2022/07/05 00:46:25;;;;;;;2.58;1.15;;;23.60;50.40;;;;;;5013066;28;20061;-61
2022/07/05 00:48:51;;;;;;;0.80;0.80;;;23.60;50.40;;;;;;4994560;28;20398;-62
2022/07/05 00:51:17;;;;;;;0.95;0.50;;;23.60;50.40;;;;;;5011763;28;20049;-62
2022/07/05 00:53:43;;;;;;;1.45;0.60;;;23.60;50.40;;;;;;5012246;28;20050;-62
2022/07/05 00:56:10;;;;;;;1.38;0.70;;;23.60;50.40;;;;;;5012946;28;20030;-61
2022/07/05 00:58:36;;;;;;;1.02;0.70;;;23.60;50.40;;;;;;5013136;28;20107;-61
2022/07/05 01:01:04;;;;;;;0.75;0.60;;;23.60;50.40;;;;;;5013244;28;20694;-63
2022/07/05 01:03:30;;;;;;;1.05;0.60;;;23.60;50.40;;;;;;5028075;28;20045;-62
2022/07/05 01:05:55;;;;;;;2.30;0.80;;;23.60;50.40;;;;;;5015741;28;20563;-62
2022/07/05 01:08:23;;;;;;;1.38;0.73;;;23.60;50.40;;;;;;5008124;28;20401;-62
2022/07/05 01:10:50;;;;;;;0.50;0.50;;;23.60;50.40;;;;;;5011945;28;20038;-62
2022/07/05 01:13:16;;;;;;;0.70;0.60;;;23.60;50.40;;;;;;5011193;28;20057;-62
2022/07/05 01:15:42;;;;;;;0.80;0.70;;;23.60;50.50;;;;;;5012635;28;20917;-62
2022/07/05 01:18:09;;;;;;;1.15;0.77;;;23.60;50.50;;;;;;5011580;28;20033;-62
2022/07/05 01:20:36;;;;;;;1.33;0.70;;;23.60;50.40;;;;;;5010822;28;20053;-62
2022/07/05 01:23:02;;;;;;;0.60;0.60;;;23.60;50.40;;;;;;5013570;28;20049;-63
2022/07/05 01:25:29;;;;;;;0.75;0.70;;;23.60;50.40;;;;;;5010906;28;20046;-63
2022/07/05 01:27:57;;;;;;;0.77;0.77;;;23.50;50.50;;;;;;5008559;28;20045;-62
2022/07/05 01:30:23;;;;;;;1.48;0.70;;;23.50;50.50;;;;;;5012892;28;20813;-62
2022/07/05 01:32:49;;;;;;;1.30;1.00;;;23.60;50.40;;;;;;5011714;28;20033;-62
2022/07/05 01:35:20;;;;;;;1.38;0.77;;;23.50;50.40;;;;;;5009457;28;20916;-63
2022/07/05 01:37:47;;;;;;;1.05;0.93;;;23.50;50.40;;;;;;5012830;28;20120;-63
2022/07/05 01:40:13;;;;;;;0.75;0.50;;;23.50;51.10;;;;;;5011983;28;20448;-62
2022/07/05 01:42:39;;;;;;;0.73;0.70;;;23.50;50.40;;;;;;5008119;28;20042;-64
2022/07/05 01:45:06;;;;;;;1.00;0.80;;;23.50;50.40;;;;;;5009932;28;20065;-62
2022/07/05 01:47:46;;;;;;;2.03;0.70;;;23.50;50.50;;;;;;5010720;28;20060;-62
2022/07/05 01:50:14;;;;;;;0.70;0.70;;;23.60;50.50;;;;;;5010840;28;20148;-62
2022/07/05 01:52:43;;;;;;;0.85;0.68;;;23.50;50.40;;;;;;5009427;28;20405;-63
2022/07/05 01:55:09;;;;;;;0.70;0.70;;;23.50;50.40;;;;;;5007599;28;20049;-62
2022/07/05 01:57:35;;;;;;;1.25;0.70;;;23.50;50.40;;;;;;5008936;28;20042;-63
2022/07/05 02:00:01;;;;;;;1.55;0.88;;;23.50;50.50;;;;;;5008190;28;20065;-63
2022/07/05 02:02:27;;;;;;;0.70;0.70;;;23.50;50.40;;;;;;5007600;28;20619;-62
2022/07/05 02:04:52;;;;;;;1.77;0.90;;;23.50;50.50;;;;;;5004716;28;20045;-63
2022/07/05 02:07:18;;;;;;;0.68;0.68;;;23.50;50.40;;;;;;5009058;28;20091;-62
2022/07/05 02:09:44;;;;;;;0.90;0.65;;;23.50;50.40;;;;;;5011464;28;20263;-62
2022/07/05 02:12:10;;;;;;;0.90;0.70;;;23.50;50.50;;;;;;5007796;28;20041;-62
2022/07/05 02:14:35;;;;;;;2.00;0.80;;;23.50;50.50;;;;;;5009039;28;20462;-62
2022/07/05 02:17:01;;;;;;;0.85;0.60;;;23.50;50.50;;;;;;5010346;28;20898;-63
2022/07/05 02:19:27;;;;;;;1.55;0.93;;;23.50;50.50;;;;;;5007972;28;20402;-61
2022/07/05 02:21:53;;;;;;;0.93;0.90;;;23.50;50.50;;;;;;5007288;28;20041;-62
2022/07/05 02:24:20;;;;;;;0.98;0.88;;;23.50;50.50;;;;;;5011674;28;20047;-63
2022/07/05 02:26:46;;;;;;;2.05;0.90;;;23.50;50.50;;;;;;5009562;28;20080;-62
2022/07/05 02:29:12;;;;;;;1.42;0.77;;;23.50;50.50;;;;;;5006576;28;20038;-62
2022/07/05 02:31:38;;;;;;;1.30;0.82;;;23.50;50.50;;;;;;5008971;28;20676;-62
2022/07/05 02:34:03;;;;;;;1.25;0.85;;;23.50;50.50;;;;;;5007019;28;20057;-62
2022/07/05 02:36:29;;;;;;;0.88;0.82;;;23.50;50.50;;;;;;5011413;28;20434;-62
2022/07/05 02:38:54;;;;;;;0.60;0.60;;;23.50;50.50;;;;;;5010371;28;20162;-61
2022/07/05 02:41:20;;;;;;;1.55;0.70;;;23.50;50.50;;;;;;5007218;28;20169;-62
2022/07/05 02:43:46;;;;;;;0.93;0.70;;;23.50;50.60;;;;;;5010113;28;20033;-62
2022/07/05 02:46:12;;;;;;;0.85;0.85;;;23.50;50.50;;;;;;5008614;28;20107;-62
2022/07/05 02:48:38;;;;;;;1.05;0.80;;;23.50;50.60;;;;;;5010247;28;20120;-62
2022/07/05 02:51:04;;;;;;;2.67;0.80;;;23.40;50.50;;;;;;5006764;28;20049;-63
2022/07/05 02:53:29;;;;;;;0.98;0.70;;;23.40;50.50;;;;;;5008072;28;20765;-62
2022/07/05 02:55:55;;;;;;;0.90;0.90;;;23.40;50.50;;;;;;5006275;28;20068;-62
2022/07/05 02:58:21;;;;;;;0.90;0.80;;;23.50;50.50;;;;;;5009437;28;20391;-62
2022/07/05 03:00:48;;;;;;;1.40;0.98;;;23.50;50.50;;;;;;5011786;28;20957;-62
2022/07/05 03:03:15;;;;;;;0.90;0.90;;;23.40;50.50;;;;;;5008323;28;20460;-62
2022/07/05 03:05:41;;;;;;;1.17;1.08;;;23.50;50.50;;;;;;5008838;28;20108;-62
2022/07/05 03:08:06;;;;;;;0.95;0.80;;;23.50;50.50;;;;;;5009862;28;20033;-62
2022/07/05 03:10:33;;;;;;;0.93;0.93;;;23.50;50.60;;;;;;5009116;28;20061;-62
2022/07/05 03:13:00;;;;;;;1.85;0.73;;;23.50;50.60;;;;;;5009965;28;20045;-62
2022/07/05 03:15:26;;;;;;;0.98;0.70;;;23.50;50.50;;;;;;5008882;28;20050;-62
2022/07/05 03:17:51;;;;;;;1.88;0.90;;;23.40;50.50;;;;;;5009757;28;20040;-62
2022/07/05 03:20:17;;;;;;;1.00;1.00;;;23.40;50.50;;;;;;5007483;28;20053;-62
2022/07/05 03:22:43;;;;;;;1.00;0.80;;;23.40;50.40;;;;;;5008484;28;20778;-62
2022/07/05 03:25:09;;;;;;;0.90;0.90;;;23.40;50.50;;;;;;5010678;28;20533;-62
2022/07/05 03:27:35;;;;;;;0.80;0.80;;;23.40;50.50;;;;;;5010480;28;20053;-63
2022/07/05 03:30:02;;;;;;;1.13;1.00;;;23.40;50.50;;;;;;5010523;28;20405;-62
2022/07/05 03:32:27;;;;;;;0.98;0.90;;;23.40;50.40;;;;;;5008390;28;20049;-62
2022/07/05 03:34:53;;;;;;;1.98;0.90;;;23.40;50.50;;;;;;5009611;28;20049;-61
2022/07/05 03:37:19;;;;;;;1.92;0.90;;;23.40;50.50;;;;;;5009756;28;20043;-63
2022/07/05 03:39:45;;;;;;;0.93;0.93;;;23.40;50.50;;;;;;5006483;28;20038;-61
2022/07/05 03:42:10;;;;;;;1.00;0.77;;;23.40;50.50;;;;;;5010121;28;20497;-63
2022/07/05 03:44:36;;;;;;;0.80;0.80;;;23.40;50.50;;;;;;5006324;28;20045;-62
2022/07/05 03:47:02;;;;;;;0.80;0.80;;;23.40;50.50;;;;;;5009933;28;20060;-61
2022/07/05 03:49:27;;;;;;;0.90;0.90;;;23.40;50.50;;;;;;5006955;28;20766;-62
2022/07/05 03:51:53;;;;;;;1.48;0.90;;;23.40;50.50;;;;;;5011057;28;20414;-62
2022/07/05 03:54:19;;;;;;;0.90;0.90;;;23.40;50.50;;;;;;5010336;28;20581;-61
2022/07/05 03:56:45;;;;;;;1.02;0.90;;;23.40;50.50;;;;;;5009983;28;20037;-62
2022/07/05 03:59:10;;;;;;;1.30;1.00;;;23.40;50.50;;;;;;5007345;28;20985;-62
2022/07/05 04:01:36;;;;;;;1.98;0.90;;;23.40;50.50;;;;;;5006814;28;20042;-63
2022/07/05 04:04:02;;;;;;;1.00;0.90;;;23.40;50.50;;;;;;5011358;28;20072;-62
2022/07/05 04:06:28;;;;;;;1.33;0.90;;;23.40;50.50;;;;;;5008676;28;20470;-62
2022/07/05 04:08:53;;;;;;;1.20;0.90;;;23.40;50.50;;;;;;5009197;28;20037;-62
2022/07/05 04:11:19;;;;;;;0.90;0.90;;;23.40;50.50;;;;;;5009061;28;20044;-62
2022/07/05 04:13:45;;;;;;;2.05;1.00;;;23.40;50.50;;;;;;5006885;28;20044;-62
2022/07/05 04:16:11;;;;;;;1.00;0.90;;;23.40;50.50;;;;;;5009890;28;20034;-62
2022/07/05 04:18:36;;;;;;;0.80;0.77;;;23.40;50.50;;;;;;5008523;28;20033;-61
2022/07/05 04:21:02;;;;;;;1.33;1.00;;;23.40;50.50;;;;;;5008215;28;20041;-61
2022/07/05 04:23:28;;;;;;;1.15;0.93;;;23.40;50.60;;;;;;5007559;28;20050;-63
2022/07/05 04:25:54;;;;;;;1.33;1.10;;;23.40;50.60;;;;;;5010084;28;20046;-62
2022/07/05 04:28:20;;;;;;;1.40;0.82;;;23.40;50.60;;;;;;5009621;28;20080;-62
2022/07/05 04:30:46;;;;;;;1.27;0.88;;;23.40;50.60;;;;;;5007092;28;20049;-62
2022/07/05 04:33:12;;;;;;;0.85;0.80;;;23.40;50.70;;;;;;5011344;28;20544;-61
2022/07/05 04:35:38;;;;;;;1.15;1.00;;;23.30;50.60;;;;;;5005279;28;20290;-62
2022/07/05 04:38:03;;;;;;;2.67;0.90;;;23.40;50.60;;;;;;5006803;28;20056;-62
2022/07/05 04:40:29;;;;;;;3.42;1.00;;;23.30;50.60;;;;;;5010404;28;20486;-62
2022/07/05 04:42:55;;;;;;;1.02;0.93;;;23.30;50.60;;;;;;5009130;28;20037;-62
2022/07/05 04:45:21;;;;;;;1.15;1.00;;;23.40;50.70;;;;;;5007978;28;20125;-62
2022/07/05 04:47:46;;;;;;;1.25;1.05;;;23.40;50.70;;;;;;5008413;28;20034;-62
2022/07/05 04:50:12;;;;;;;0.98;0.90;;;23.30;50.60;;;;;;5009032;28;20046;-62
2022/07/05 04:52:38;;;;;;;2.47;1.10;;;23.30;50.60;;;;;;5009545;28;20045;-62
2022/07/05 04:55:04;;;;;;;1.73;0.93;;;23.40;50.70;;;;;;5005695;28;20049;-62
2022/07/05 04:57:40;;;;;;;1.85;1.30;;;23.40;50.80;;;;;;5006469;28;20041;-63
2022/07/05 05:00:08;;;;;;;1.75;1.00;;;23.30;50.70;;;;;;5007228;28;20029;-62
2022/07/05 05:02:33;;;;;;;1.30;1.00;;;23.30;50.90;;;;;;5007045;28;20455;-61
2022/07/05 05:04:59;;;;;;;1.23;1.08;;;23.30;50.70;;;;;;5010948;28;20126;-62
2022/07/05 05:07:25;;;;;;;1.02;0.93;;;23.30;50.70;;;;;;5005875;28;20409;-63
2022/07/05 05:09:50;;;;;;;1.75;1.10;;;23.30;50.70;;;;;;5010541;28;20528;-61
2022/07/05 05:12:16;;;;;;;1.13;0.90;;;23.30;50.80;;;;;;5011460;28;20042;-62
2022/07/05 05:14:42;;;;;;;0.95;0.90;;;23.30;50.80;;;;;;5012395;28;20530;-63
2022/07/05 05:17:07;;;;;;;1.55;0.90;;;23.30;50.80;;;;;;5008924;28;20042;-63
2022/07/05 05:19:33;;;;;;;1.23;1.08;;;23.30;50.90;;;;;;5014966;28;20030;-62
2022/07/05 05:21:59;;;;;;;3.13;1.00;;;23.30;51.10;;;;;;5008473;28;20490;-60
2022/07/05 05:24:24;;;;;;;2.08;0.85;;;23.40;51.20;;;;;;5006782;28;20095;-63
2022/07/05 05:26:50;;;;;;;1.50;0.95;;;23.40;51.20;;;;;;5009881;28;20501;-62
2022/07/05 05:29:17;;;;;;;1.90;1.10;;;23.40;51.20;;;;;;5005446;28;20131;-62
2022/07/05 05:31:43;;;;;;;4.15;1.30;;;23.40;51.30;;;;;;5004315;28;20050;-62
2022/07/05 05:34:08;;;;;;;3.42;1.50;;;23.40;51.70;;;;;;5008370;28;20514;-63
2022/07/05 05:36:34;;;;;;;4.25;1.13;;;23.40;51.90;;;;;;5009364;28;20468;-63
2022/07/05 05:39:00;;;;;;;1.80;1.05;;;23.40;51.80;;;;;;5007001;28;20421;-64
2022/07/05 05:41:25;;;;;;;2.40;0.90;;;23.40;51.90;;;;;;5011176;28;20044;-61
2022/07/05 05:43:51;;;;;;;1.30;1.05;;;23.50;52.10;;;;;;5009249;28;20088;-62
2022/07/05 05:46:17;;;;;;;1.75;1.00;;;23.40;51.90;;;;;;5010239;28;20050;-61
2022/07/05 05:48:42;;;;;;;1.13;1.02;;;23.50;51.90;;;;;;5012536;28;20050;-62
2022/07/05 05:51:08;;;;;;;2.97;1.15;;;23.40;51.90;;;;;;5014711;28;20041;-63
2022/07/05 05:53:33;;;;;;;1.30;1.10;;;23.50;52.20;;;;;;5009507;28;20120;-61
2022/07/05 05:55:59;;;;;;;3.78;1.40;;;23.50;52.30;;;;;;5009544;28;20081;-62
2022/07/05 05:58:25;;;;;;;2.78;1.27;;;23.50;52.50;;;;;;5010270;28;20045;-62
2022/07/05 06:00:52;;;;;;;5.47;1.10;;;23.50;52.50;;;;;;5009897;28;20048;-61
2022/07/05 06:03:22;;;;;;;3.70;1.67;;;23.50;52.60;;;;;;5011414;28;20060;-61
2022/07/05 06:05:48;;;;;;;3.58;1.23;;;23.50;52.70;;;;;;5008493;28;20283;-62
2022/07/05 06:08:14;;;;;;;3.85;1.50;;;23.50;52.80;;;;;;5011016;28;20107;-63
2022/07/05 06:10:40;;;;;;;4.38;1.42;;;23.50;52.90;;;;;;5011395;28;20034;-62
2022/07/05 06:13:11;;;;;;;5.63;1.52;;;23.50;53.00;;;;;;5010468;28;20034;-63
2022/07/05 06:15:38;;;;;;;3.55;1.60;;;23.50;53.00;;;;;;5009896;28;20045;-62
2022/07/05 06:18:04;;;;;;;2.80;1.48;;;23.50;53.10;;;;;;5012970;28;20060;-63
2022/07/05 06:20:35;;;;;;;5.22;1.63;;;23.50;53.10;;;;;;5003962;28;20163;-61
2022/07/05 06:23:02;;;;;;;3.53;1.33;;;23.50;53.20;;;;;;5010041;28;20131;-63
2022/07/05 06:25:28;;;;;;;7.40;1.40;;;23.50;53.30;;;;;;5010107;28;20037;-61
2022/07/05 06:27:56;;;;;;;4.22;1.08;;;23.50;53.30;;;;;;5012412;28;20049;-62
2022/07/05 06:30:24;;;;;;;2.00;1.10;;;23.60;53.40;;;;;;5003781;28;20042;-61
2022/07/05 06:32:50;;;;;;;3.40;1.20;;;23.50;53.40;;;;;;5009116;28;20622;-61
2022/07/05 06:35:17;;;;;;;1.55;1.15;;;23.50;53.40;;;;;;5007146;28;20478;-62
2022/07/05 06:37:48;;;;;;;2.00;0.95;;;23.50;53.50;;;;;;5010157;28;20049;-62
2022/07/05 06:40:28;;;;;;;7.00;1.52;;;23.60;53.70;;;;;;5009031;28;20049;-62
2022/07/05 06:42:55;;;;;;;1.33;0.98;;;23.60;53.80;;;;;;4995628;28;20106;-62
2022/07/05 06:45:22;;;;;;;2.78;1.30;;;23.50;54.40;;;;;;5008127;28;20816;-63
2022/07/05 06:47:58;;;;;;;2.33;1.20;;;23.50;53.70;;;;;;5008156;28;20056;-63
2022/07/05 06:50:25;;;;;;;3.20;1.40;;;23.50;53.80;;;;;;5010068;28;20085;-63
2022/07/05 06:52:51;;;;;;;5.38;1.60;;;23.60;53.80;;;;;;5006754;28;20421;-62
2022/07/05 06:55:16;;;;;;;3.08;1.38;;;23.60;54.00;;;;;;5005916;28;20041;-61
2022/07/05 06:57:43;;;;;;;2.35;1.25;;;23.60;53.90;;;;;;5008013;28;20494;-60
2022/07/05 07:00:10;;;;;;;1.50;0.90;;;23.60;54.00;;;;;;5007269;28;20513;-61
2022/07/05 07:02:35;;;;;;;5.30;1.13;;;23.60;53.90;;;;;;5004312;28;20073;-64
2022/07/05 07:05:01;;;;;;;5.38;1.30;;;23.60;53.90;;;;;;5009533;28;20065;-64
2022/07/05 07:10:11;;;;;;;3.03;1.25;;;23.60;54.00;;;;;;5010033;28;20464;-61
2022/07/05 07:12:37;;;;;;;4.63;1.33;;;23.60;54.10;;;;;;5009491;28;20073;-61
2022/07/05 07:15:03;;;;;;;7.25;1.50;;;23.60;54.10;;;;;;5009325;28;20860;-61
2022/07/05 07:17:29;;;;;;;2.55;1.10;;;23.60;54.10;;;;;;5007353;28;20111;-61
2022/07/05 07:19:54;;;;;;;3.55;1.30;;;23.60;54.10;;;;;;5003633;28;20473;-60
2022/07/05 07:22:20;;;;;;;6.30;1.30;;;23.60;54.00;;;;;;5004211;28;20034;-60
2022/07/05 07:24:46;;;;;;;2.97;1.10;;;23.60;54.10;;;;;;5005429;28;20120;-61
2022/07/05 07:27:11;;;;;;;4.57;1.30;;;23.60;54.30;;;;;;5009000;28;20034;-61
2022/07/05 07:29:39;;;;;;;3.70;1.17;;;23.60;54.60;;;;;;5008453;28;20088;-61
2022/07/05 07:32:06;;;;;;;2.90;1.00;;;23.60;54.70;;;;;;5006977;28;20069;-61
2022/07/05 07:34:33;;;;;;;5.65;1.23;;;23.60;54.80;;;;;;5005669;28;20061;-60
2022/07/05 07:36:59;;;;;;;5.78;1.40;;;23.60;54.80;;;;;;5007319;28;20041;-61
2022/07/05 07:39:26;;;;;;;1.55;1.10;;;23.70;55.00;;;;;;4997526;28;20446;-61
2022/07/05 07:41:52;;;;;;;5.43;1.30;;;23.70;55.00;;;;;;4996578;28;20064;-61
2022/07/05 07:44:18;;;;;;;3.50;1.20;;;23.70;55.00;;;;;;5007144;28;20557;-60
2022/07/05 07:46:44;;;;;;;3.38;1.02;;;23.70;55.00;;;;;;5003259;28;20046;-60
2022/07/05 07:49:13;;;;;;;4.55;1.42;;;23.70;55.00;;;;;;5008354;28;20547;-60
2022/07/05 07:51:40;;;;;;;6.97;1.30;;;23.80;55.00;;;;;;5005519;28;20426;-60
2022/07/05 07:54:05;;;;;;;5.53;1.05;;;23.80;54.90;;;;;;5007853;28;20045;-60
2022/07/05 07:56:31;;;;;;;4.60;0.90;;;23.80;54.90;;;;;;5006154;28;20728;-61
2022/07/05 07:58:57;;;;;;;3.45;1.02;;;23.80;54.90;;;;;;5006922;28;20183;-61
2022/07/05 08:01:23;;;;;;;9.25;1.17;;;23.80;54.90;;;;;;5005374;28;20073;-60
2022/07/05 08:03:49;;;;;;;1.52;0.90;;;23.80;54.90;;;;;;5003673;28;20042;-61
2022/07/05 08:06:15;;;;;;;3.00;1.10;;;23.80;54.90;;;;;;5006622;28;20444;-60
2022/07/05 08:08:44;;;;;;;4.90;1.17;;;23.80;54.90;;;;;;5005972;28;20038;-60
2022/07/05 08:11:10;;;;;;;4.88;1.20;;;23.90;55.10;;;;;;5005343;28;20046;-60
2022/07/05 08:13:36;;;;;;;6.88;1.10;;;23.80;55.00;;;;;;5005834;28;20038;-60
2022/07/05 08:16:02;;;;;;;4.32;1.00;;;23.80;55.00;;;;;;5003431;28;20061;-61
2022/07/05 08:21:31;;;;;;;5.07;1.08;;;23.80;55.00;;;;;;5005350;28;20125;-61
2022/07/05 08:24:01;;;;;;;1.98;0.80;;;23.80;55.20;;;;;;5003769;28;20045;-60
2022/07/05 08:26:28;;;;;;;6.03;1.10;;;23.80;55.40;;;;;;5005264;28;20615;-61
2022/07/05 08:28:54;;;;;;;3.13;0.90;;;23.80;55.60;;;;;;5007042;28;20053;-61
2022/07/05 08:31:20;;;;;;;3.00;1.08;;;23.80;55.70;;;;;;5007601;28;20486;-62
2022/07/05 08:33:47;;;;;;;4.93;1.10;;;23.80;55.90;;;;;;5002724;28;20155;-61
2022/07/05 08:36:13;;;;;;;5.50;1.35;;;23.80;55.90;;;;;;5009311;28;20574;-61
2022/07/05 08:38:38;;;;;;;1.33;0.85;;;23.80;56.60;;;;;;5006040;28;20046;-61
2022/07/05 08:41:08;;;;;;;2.17;1.00;;;23.80;55.90;;;;;;5004811;28;20038;-61
2022/07/05 08:43:36;;;;;;;7.53;1.43;;;23.90;56.00;;;;;;5006337;28;20160;-60
2022/07/05 08:46:03;;;;;;;3.35;1.02;;;23.90;56.00;;;;;;5008292;28;20681;-61
2022/07/05 08:48:30;;;;;;;3.13;1.20;;;23.90;56.20;;;;;;5008297;28;20060;-60
2022/07/05 08:50:57;;;;;;;2.88;1.00;;;23.90;56.20;;;;;;5006520;28;20112;-61
2022/07/05 08:53:24;;;;;;;3.67;1.02;;;23.90;56.20;;;;;;5009773;28;20072;-61
2022/07/05 08:55:50;;;;;;;2.58;1.27;;;23.90;56.00;;;;;;5005670;28;20543;-62
2022/07/05 08:58:16;;;;;;;3.15;1.00;;;23.90;56.00;;;;;;5010231;28;20406;-61
2022/07/05 09:00:42;;;;;;;4.88;0.93;;;23.90;55.70;;;;;;5006792;28;20477;-60
2022/07/05 09:03:09;;;;;;;4.00;0.88;;;23.90;55.60;;;;;;5008079;28;20143;-61
2022/07/05 09:05:42;;;;;;;4.93;1.25;;;23.90;55.30;;;;;;5008390;28;20041;-62
2022/07/05 09:08:10;;;;;;;2.33;1.00;;;23.90;55.20;;;;;;5010690;28;20037;-61
2022/07/05 09:10:37;;;;;;;1.73;0.90;;;23.90;55.20;;;;;;5006805;28;20042;-60
2022/07/05 09:13:03;;;;;;;2.97;0.65;;;23.90;55.30;;;;;;5005982;28;20034;-61
2022/07/05 09:15:30;;;;;;;3.20;1.10;;;23.90;55.20;;;;;;5008546;28;20050;-61
2022/07/05 09:17:56;;;;;;;1.67;0.90;;;23.90;55.00;;;;;;5006806;28;20046;-60
2022/07/05 09:20:21;;;;;;;2.03;0.90;;;23.90;54.90;;;;;;5010608;28;20048;-61
2022/07/05 09:22:55;;;;;;;5.03;1.55;;;23.90;54.80;;;;;;5009140;28;20034;-62
2022/07/05 09:25:23;;;;;;;1.85;1.17;;;23.90;54.90;;;;;;5007035;28;20061;-61
2022/07/05 09:28:07;;;;;;;2.40;1.10;;;23.80;55.00;;;;;;5008572;28;20096;-62
2022/07/05 09:30:36;;;;;;;3.17;1.17;;;23.90;55.20;;;;;;5007712;28;20042;-61
2022/07/05 09:33:10;;;;;;;5.57;1.52;;;23.90;55.20;;;;;;5000505;28;20045;-62
2022/07/05 09:35:50;;;;;;;3.60;1.20;;;23.90;55.10;;;;;;5008900;28;20042;-62
2022/07/05 09:38:20;;;;;;;4.65;1.23;;;23.90;55.10;;;;;;5007368;28;20048;-62
2022/07/05 09:40:51;;;;;;;1.35;1.00;;;23.90;55.80;;;;;;5009304;28;20034;-62
2022/07/05 09:43:19;;;;;;;3.22;1.20;;;23.90;55.00;;;;;;4998829;28;20501;-63
2022/07/05 09:45:56;;;;;;;3.75;1.15;;;23.80;54.90;;;;;;5008278;28;20184;-61
2022/07/05 09:48:22;;;;;;;2.50;1.00;;;23.90;54.90;;;;;;5008630;28;20045;-63
2022/07/05 09:50:50;;;;;;;2.03;0.90;;;23.80;54.80;;;;;;5008972;28;20908;-63
2022/07/05 09:53:16;;;;;;;4.13;1.27;;;23.80;54.70;;;;;;5010000;28;20037;-62
2022/07/05 09:55:41;;;;;;;2.20;1.10;;;23.90;54.60;;;;;;5008880;28;20050;-62
2022/07/05 09:58:07;;;;;;;1.60;0.93;;;23.90;54.60;;;;;;5008944;28;20094;-62
2022/07/05 10:00:33;;;;;;;2.80;1.05;;;23.90;54.40;;;;;;5009208;28;20882;-62
2022/07/05 10:03:02;;;;;;;1.58;1.10;;;23.80;54.30;;;;;;5008217;28;20800;-62
2022/07/05 10:05:29;;;;;;;1.88;1.13;;;23.90;54.20;;;;;;5009535;28;20125;-62
2022/07/05 10:08:00;;;;;;;2.58;1.15;;;23.90;54.10;;;;;;5008750;28;20044;-61
2022/07/05 10:10:31;;;;;;;1.63;1.02;;;23.80;54.10;;;;;;5010821;28;20050;-62
2022/07/05 10:13:07;;;;;;;1.17;0.80;;;23.80;54.10;;;;;;5011121;28;20045;-61
2022/07/05 10:15:34;;;;;;;2.08;1.00;;;23.90;54.10;;;;;;5010455;28;20640;-61
2022/07/05 10:18:08;;;;;;;1.20;1.00;;;23.80;54.10;;;;;;5007870;28;20121;-62
2022/07/05 10:20:34;;;;;;;2.00;0.90;;;23.80;54.10;;;;;;5010022;28;20063;-62
2022/07/05 10:23:02;;;;;;;2.95;1.00;;;23.80;54.00;;;;;;5008844;28;20034;-62
2022/07/05 10:25:28;;;;;;;2.20;0.70;;;23.80;54.00;;;;;;5009369;28;20047;-62
2022/07/05 10:27:55;;;;;;;1.85;0.93;;;23.80;54.00;;;;;;5009672;28;20531;-61
2022/07/05 10:30:23;;;;;;;2.78;1.00;;;23.80;53.90;;;;;;5006743;28;20081;-61
2022/07/05 10:32:49;;;;;;;1.67;0.80;;;23.80;53.90;;;;;;5005884;28;20068;-63
2022/07/05 10:35:19;;;;;;;1.45;0.77;;;23.80;53.80;;;;;;5009875;28;20067;-62
2022/07/05 10:37:46;;;;;;;1.42;0.80;;;23.80;53.70;;;;;;5010681;28;20030;-62
2022/07/05 10:40:12;;;;;;;1.83;0.90;;;23.80;53.70;;;;;;5009880;28;20465;-62
2022/07/05 10:42:41;;;;;;;1.55;0.90;;;23.80;53.70;;;;;;5008621;28;20048;-61
2022/07/05 10:45:34;;;;;;;1.25;0.80;;;23.80;53.60;;;;;;5010410;28;20111;-62
2022/07/05 10:48:13;;;;;;;2.05;0.90;;;23.80;53.40;;;;;;5005543;28;20185;-62
2022/07/05 10:50:52;;;;;;;1.02;0.75;;;23.80;53.30;;;;;;5007721;28;20049;-62
2022/07/05 10:53:37;;;;;;;1.80;0.60;;;23.80;53.40;;;;;;5008211;28;20041;-62
2022/07/05 10:56:03;;;;;;;2.75;0.93;;;23.80;53.30;;;;;;5006220;28;20050;-61
2022/07/05 10:58:33;;;;;;;1.55;0.80;;;23.80;53.40;;;;;;5006621;28;20055;-62
2022/07/05 11:01:17;;;;;;;2.70;1.10;;;23.80;53.40;;;;;;5006223;28;20479;-63
2022/07/05 11:03:55;;;;;;;1.60;0.80;;;23.80;53.30;;;;;;5002364;28;20046;-62
2022/07/05 11:06:39;;;;;;;5.88;1.00;;;23.80;53.40;;;;;;5007010;28;20050;-62
2022/07/05 11:09:07;;;;;;;1.73;0.80;;;23.80;53.30;;;;;;5005254;28;20127;-62
2022/07/05 11:11:35;;;;;;;2.38;0.90;;;23.80;53.40;;;;;;5007263;28;20083;-61
2022/07/05 11:14:25;;;;;;;2.15;0.93;;;23.80;53.50;;;;;;5008068;28;20060;-62
2022/07/05 11:17:10;;;;;;;2.00;1.20;;;23.80;53.40;;;;;;5007016;28;20068;-62
2022/07/05 11:19:59;;;;;;;1.95;0.80;;;23.80;53.30;;;;;;5006231;28;20045;-62
2022/07/05 11:22:25;;;;;;;2.10;0.93;;;23.80;53.20;;;;;;5006403;28;20092;-63
2022/07/05 11:24:51;;;;;;;1.75;0.63;;;23.80;53.20;;;;;;5003801;28;20033;-63
2022/07/05 11:27:17;;;;;;;2.38;0.90;;;23.80;53.10;;;;;;4988200;28;20042;-64
2022/07/05 11:29:54;;;;;;;1.13;0.75;;;23.80;53.50;;;;;;4990881;28;20049;-62
2022/07/05 11:32:23;;;;;;;1.45;0.82;;;23.80;53.70;;;;;;4995708;28;20050;-63
2022/07/05 11:34:50;;;;;;;1.52;0.70;;;23.80;53.60;;;;;;4975967;28;20046;-62
2022/07/05 11:37:30;;;;;;;4.40;1.27;;;23.80;53.60;;;;;;5003143;28;20164;-65
2022/07/05 11:40:11;;;;;;;4.30;1.08;;;23.80;53.90;;;;;;5008467;28;20053;-63
2022/07/05 11:42:47;;;;;;;2.75;1.35;;;23.80;54.10;;;;;;5007548;28;20053;-63
2022/07/05 11:45:13;;;;;;;2.30;0.98;;;23.80;54.10;;;;;;5006555;28;20046;-63
2022/07/05 11:47:39;;;;;;;4.97;1.00;;;23.80;54.30;;;;;;5007925;28;20120;-63
2022/07/05 11:50:06;;;;;;;4.85;1.08;;;23.80;54.20;;;;;;5007354;28;20046;-64
2022/07/05 11:52:33;;;;;;;2.85;1.00;;;23.80;54.10;;;;;;4988897;28;20046;-63
2022/07/05 11:55:04;;;;;;;7.45;0.98;;;23.80;54.00;;;;;;5006622;28;20094;-64
2022/07/05 11:57:30;;;;;;;7.35;1.35;;;23.80;54.00;;;;;;5007281;28;20081;-65
2022/07/05 11:59:56;;;;;;;1.73;1.05;;;23.80;54.00;;;;;;5004676;28;20112;-64
2022/07/05 12:02:21;;;;;;;4.45;1.13;;;23.80;54.00;;;;;;5006438;28;20081;-64
2022/07/05 12:04:49;;;;;;;4.95;1.00;;;23.80;54.00;;;;;;5006293;28;20124;-63
2022/07/05 12:07:48;;;;;;;5.68;1.08;;;23.90;54.00;;;;;;5005751;28;20065;-63
2022/07/05 12:13:06;;;;;;;6.10;1.30;;;23.80;54.00;;;;;;5010215;28;20065;-63
2022/07/05 12:15:32;;;;;;;2.70;1.00;;;23.80;54.00;;;;;;5007421;28;20112;-62
2022/07/05 12:18:03;;;;;;;4.85;1.00;;;23.80;54.10;;;;;;5009473;28;20042;-64
2022/07/05 12:20:30;;;;;;;4.45;1.13;;;23.80;53.80;;;;;;5006417;28;20697;-63
2022/07/05 12:22:55;;;;;;;3.75;1.10;;;23.80;51.80;;;;;;5005893;28;20044;-63
2022/07/05 12:25:23;;;;;;;4.05;1.05;;;23.80;51.00;;;;;;5005110;28;20029;-62
2022/07/05 12:27:50;;;;;;;5.05;0.88;;;23.70;50.30;;;;;;5004385;28;20050;-63
2022/07/05 12:30:17;;;;;;;2.85;1.00;;;23.70;49.70;;;;;;5006595;28;20033;-64
2022/07/05 12:33:04;;;;;;;5.93;1.15;;;23.60;49.80;;;;;;5007677;28;20042;-63
2022/07/05 12:35:43;;;;;;;4.32;0.85;;;23.60;49.80;;;;;;5005545;28;20053;-63
2022/07/05 12:38:10;;;;;;;1.58;0.70;;;23.60;50.60;;;;;;5005854;28;20045;-63
2022/07/05 12:40:41;;;;;;;4.43;0.95;;;23.60;50.30;;;;;;5006333;28;20123;-63
2022/07/05 12:43:11;;;;;;;6.32;1.00;;;23.60;50.00;;;;;;5008495;28;20042;-64
2022/07/05 12:45:39;;;;;;;2.35;0.80;;;23.60;49.90;;;;;;5009890;28;20510;-64
2022/07/05 12:48:06;;;;;;;5.63;0.98;;;23.70;50.00;;;;;;5008027;28;20469;-64
2022/07/05 12:51:05;;;;;;;12.10;1.45;;;23.60;48.80;;;;;;5004933;28;20050;-63
2022/07/05 12:59:09;;;;;;;7.22;0.80;;;23.60;47.60;;;;;;5007640;28;20053;-63
2022/07/05 13:01:39;;;;;;;3.47;0.77;;;23.60;47.00;;;;;;5009096;28;20042;-63
2022/07/05 13:04:18;;;;;;;1.35;0.40;;;23.60;46.30;;;;;;5006559;28;20088;-64